sensor_id;sensor_type;location;lat;lon;timestamp;temperature;humidity
18880;DHT22;9572;52.378;13.404;2023-07-13T00:02:04;17.80;99.90
18880;DHT22;9572;52.378;13.404;2023-07-13T00:04:31;17.80;99.90
18880;DHT22;9572;52.378;13.404;2023-07-13T00:06:58;17.80;99.90
18880;DHT22;9572;52.378;13.404;2023-07-13T00:09:26;17.80;99.90
18880;DHT22;9572;52.378;13.404;2023-07-13T00:11:56;17.70;99.90
18880;DHT22;9572;52.378;13.404;2023-07-13T00:14:23;17.70;99.90
18880;DHT22;9572;52.378;13.404;2023-07-13T00:16:51;17.60;99.90
18880;DHT22;9572;52.378;13.404;2023-07-13T00:19:18;17.60;99.90
18880;DHT22;9572;52.378;13.404;2023-07-13T00:21:45;17.60;99.90
18880;DHT22;9572;52.378;13.404;2023-07-13T00:24:14;17.60;99.90
18880;DHT22;9572;52.378;13.404;2023-07-13T00:26:42;17.60;99.90
18880;DHT22;9572;52.378;13.404;2023-07-13T00:29:11;17.60;99.90
18880;DHT22;9572;52.378;13.404;2023-07-13T00:31:38;17.60;99.90
18880;DHT22;9572;52.378;13.404;2023-07-13T00:34:05;17.60;99.90
18880;DHT22;9572;52.378;13.404;2023-07-13T00:36:32;17.60;99.90
18880;DHT22;9572;52.378;13.404;2023-07-13T00:38:59;17.60;99.90
18880;DHT22;9572;52.378;13.404;2023-07-13T00:41:26;17.60;99.90
18880;DHT22;9572;52.378;13.404;2023-07-13T00:43:55;17.60;99.90
18880;DHT22;9572;52.378;13.404;2023-07-13T00:46:25;17.60;99.90
18880;DHT22;9572;52.378;13.404;2023-07-13T00:48:53;17.60;99.90
18880;DHT22;9572;52.378;13.404;2023-07-13T00:51:25;17.60;99.90
18880;DHT22;9572;52.378;13.404;2023-07-13T00:53:54;17.50;99.90
18880;DHT22;9572;52.378;13.404;2023-07-13T00:56:23;17.50;99.90
18880;DHT22;9572;52.378;13.404;2023-07-13T00:58:50;17.40;99.90
18880;DHT22;9572;52.378;13.404;2023-07-13T01:01:18;17.40;99.90
18880;DHT22;9572;52.378;13.404;2023-07-13T01:03:45;17.40;99.90
18880;DHT22;9572;52.378;13.404;2023-07-13T01:06:13;17.30;99.90
18880;DHT22;9572;52.378;13.404;2023-07-13T01:08:40;17.40;99.90
18880;DHT22;9572;52.378;13.404;2023-07-13T01:11:07;17.30;99.90
18880;DHT22;9572;52.378;13.404;2023-07-13T01:13:34;17.30;99.90
18880;DHT22;9572;52.378;13.404;2023-07-13T01:16:05;17.30;99.90
18880;DHT22;9572;52.378;13.404;2023-07-13T01:18:39;17.30;99.90
18880;DHT22;9572;52.378;13.404;2023-07-13T01:21:07;17.30;99.90
18880;DHT22;9572;52.378;13.404;2023-07-13T01:23:34;17.20;99.90
18880;DHT22;9572;52.378;13.404;2023-07-13T01:26:01;17.20;99.90
18880;DHT22;9572;52.378;13.404;2023-07-13T01:28:29;17.10;99.90
18880;DHT22;9572;52.378;13.404;2023-07-13T01:30:57;17.10;99.90
18880;DHT22;9572;52.378;13.404;2023-07-13T01:33:25;17.10;99.90
18880;DHT22;9572;52.378;13.404;2023-07-13T01:35:52;17.10;99.90
18880;DHT22;9572;52.378;13.404;2023-07-13T01:38:22;17.00;99.90
18880;DHT22;9572;52.378;13.404;2023-07-13T01:40:49;17.00;99.90
18880;DHT22;9572;52.378;13.404;2023-07-13T01:43:16;16.90;99.90
18880;DHT22;9572;52.378;13.404;2023-07-13T01:45:43;16.90;99.90
18880;DHT22;9572;52.378;13.404;2023-07-13T01:48:11;16.90;99.90
18880;DHT22;9572;52.378;13.404;2023-07-13T01:50:38;16.90;99.90
18880;DHT22;9572;52.378;13.404;2023-07-13T01:53:05;16.90;99.90
18880;DHT22;9572;52.378;13.404;2023-07-13T01:55:34;16.90;99.90
18880;DHT22;9572;52.378;13.404;2023-07-13T01:58:02;16.90;99.90
18880;DHT22;9572;52.378;13.404;2023-07-13T02:00:29;16.90;99.90
18880;DHT22;9572;52.378;13.404;2023-07-13T02:02:56;16.90;99.90
18880;DHT22;9572;52.378;13.404;2023-07-13T02:05:23;16.90;99.90
18880;DHT22;9572;52.378;13.404;2023-07-13T02:07:50;16.90;99.90
18880;DHT22;9572;52.378;13.404;2023-07-13T02:10:18;16.80;99.90
18880;DHT22;9572;52.378;13.404;2023-07-13T02:12:48;16.80;99.90
18880;DHT22;9572;52.378;13.404;2023-07-13T02:15:16;16.90;99.90
18880;DHT22;9572;52.378;13.404;2023-07-13T02:17:43;16.90;99.90
18880;DHT22;9572;52.378;13.404;2023-07-13T02:20:10;16.80;99.90
18880;DHT22;9572;52.378;13.404;2023-07-13T02:22:37;16.70;99.90
18880;DHT22;9572;52.378;13.404;2023-07-13T02:25:05;16.60;99.90
18880;DHT22;9572;52.378;13.404;2023-07-13T02:27:32;16.60;99.90
18880;DHT22;9572;52.378;13.404;2023-07-13T02:30:00;16.50;99.90
18880;DHT22;9572;52.378;13.404;2023-07-13T02:32:28;16.60;99.90
18880;DHT22;9572;52.378;13.404;2023-07-13T02:34:55;16.50;99.90
18880;DHT22;9572;52.378;13.404;2023-07-13T02:37:22;16.50;99.90
18880;DHT22;9572;52.378;13.404;2023-07-13T02:39:49;16.40;99.90
18880;DHT22;9572;52.378;13.404;2023-07-13T02:42:16;16.40;99.90
18880;DHT22;9572;52.378;13.404;2023-07-13T02:44:43;16.40;99.90
18880;DHT22;9572;52.378;13.404;2023-07-13T02:47:11;16.40;99.90
18880;DHT22;9572;52.378;13.404;2023-07-13T02:49:38;16.30;99.90
18880;DHT22;9572;52.378;13.404;2023-07-13T02:52:06;16.30;99.90
18880;DHT22;9572;52.378;13.404;2023-07-13T02:54:33;16.30;99.90
18880;DHT22;9572;52.378;13.404;2023-07-13T02:57:00;16.30;99.90
18880;DHT22;9572;52.378;13.404;2023-07-13T02:59:27;16.20;99.90
18880;DHT22;9572;52.378;13.404;2023-07-13T03:01:54;16.10;99.90
18880;DHT22;9572;52.378;13.404;2023-07-13T03:04:22;16.10;99.90
18880;DHT22;9572;52.378;13.404;2023-07-13T03:06:49;16.10;99.90
18880;DHT22;9572;52.378;13.404;2023-07-13T03:09:16;16.00;99.90
18880;DHT22;9572;52.378;13.404;2023-07-13T03:11:43;16.00;99.90
18880;DHT22;9572;52.378;13.404;2023-07-13T03:14:10;16.00;99.90
18880;DHT22;9572;52.378;13.404;2023-07-13T03:16:37;16.00;99.90
18880;DHT22;9572;52.378;13.404;2023-07-13T03:19:04;16.00;99.90
18880;DHT22;9572;52.378;13.404;2023-07-13T03:21:32;16.10;99.90
18880;DHT22;9572;52.378;13.404;2023-07-13T03:23:59;16.10;99.90
18880;DHT22;9572;52.378;13.404;2023-07-13T03:26:26;16.20;99.90
18880;DHT22;9572;52.378;13.404;2023-07-13T03:28:53;16.20;99.90
18880;DHT22;9572;52.378;13.404;2023-07-13T03:31:26;16.20;99.90
18880;DHT22;9572;52.378;13.404;2023-07-13T03:33:54;16.20;99.90
18880;DHT22;9572;52.378;13.404;2023-07-13T03:36:23;16.20;99.90
18880;DHT22;9572;52.378;13.404;2023-07-13T03:38:54;16.20;99.90
18880;DHT22;9572;52.378;13.404;2023-07-13T03:41:23;16.20;99.90
18880;DHT22;9572;52.378;13.404;2023-07-13T03:43:50;16.30;99.90
18880;DHT22;9572;52.378;13.404;2023-07-13T03:46:17;16.30;99.90
18880;DHT22;9572;52.378;13.404;2023-07-13T03:48:46;16.40;99.90
18880;DHT22;9572;52.378;13.404;2023-07-13T03:51:15;16.30;99.90
18880;DHT22;9572;52.378;13.404;2023-07-13T03:53:43;16.40;99.90
18880;DHT22;9572;52.378;13.404;2023-07-13T03:56:13;16.50;99.90
18880;DHT22;9572;52.378;13.404;2023-07-13T03:58:42;16.50;99.90
18880;DHT22;9572;52.378;13.404;2023-07-13T04:01:10;16.50;99.90
18880;DHT22;9572;52.378;13.404;2023-07-13T04:03:38;16.50;99.90
18880;DHT22;9572;52.378;13.404;2023-07-13T04:06:07;16.60;99.90
18880;DHT22;9572;52.378;13.404;2023-07-13T04:08:36;16.60;99.90
18880;DHT22;9572;52.378;13.404;2023-07-13T04:11:04;16.60;99.90
18880;DHT22;9572;52.378;13.404;2023-07-13T04:13:32;16.60;99.90
18880;DHT22;9572;52.378;13.404;2023-07-13T04:16:00;16.70;99.90
18880;DHT22;9572;52.378;13.404;2023-07-13T04:18:27;16.70;99.90
18880;DHT22;9572;52.378;13.404;2023-07-13T04:20:54;16.70;99.90
18880;DHT22;9572;52.378;13.404;2023-07-13T04:23:21;16.80;99.90
18880;DHT22;9572;52.378;13.404;2023-07-13T04:25:51;16.80;99.90
18880;DHT22;9572;52.378;13.404;2023-07-13T04:28:19;16.90;99.90
18880;DHT22;9572;52.378;13.404;2023-07-13T04:30:48;16.90;99.90
18880;DHT22;9572;52.378;13.404;2023-07-13T04:33:17;16.90;99.90
18880;DHT22;9572;52.378;13.404;2023-07-13T04:35:48;17.00;99.90
18880;DHT22;9572;52.378;13.404;2023-07-13T04:38:15;17.10;99.90
18880;DHT22;9572;52.378;13.404;2023-07-13T04:40:44;17.10;99.90
18880;DHT22;9572;52.378;13.404;2023-07-13T04:43:11;17.20;99.90
18880;DHT22;9572;52.378;13.404;2023-07-13T04:45:38;17.20;99.90
18880;DHT22;9572;52.378;13.404;2023-07-13T04:48:06;17.30;99.90
18880;DHT22;9572;52.378;13.404;2023-07-13T04:50:36;17.40;99.90
18880;DHT22;9572;52.378;13.404;2023-07-13T04:53:03;17.40;99.90
18880;DHT22;9572;52.378;13.404;2023-07-13T04:55:31;17.40;99.90
18880;DHT22;9572;52.378;13.404;2023-07-13T04:57:58;17.50;99.90
18880;DHT22;9572;52.378;13.404;2023-07-13T05:00:26;17.60;99.90
18880;DHT22;9572;52.378;13.404;2023-07-13T05:02:55;17.70;99.90
18880;DHT22;9572;52.378;13.404;2023-07-13T05:05:22;17.80;99.90
18880;DHT22;9572;52.378;13.404;2023-07-13T05:07:49;18.00;99.90
18880;DHT22;9572;52.378;13.404;2023-07-13T05:10:16;18.10;99.90
18880;DHT22;9572;52.378;13.404;2023-07-13T05:12:43;18.30;99.90
18880;DHT22;9572;52.378;13.404;2023-07-13T05:15:11;18.40;99.90
18880;DHT22;9572;52.378;13.404;2023-07-13T05:17:38;18.50;99.90
18880;DHT22;9572;52.378;13.404;2023-07-13T05:20:06;18.60;99.90
18880;DHT22;9572;52.378;13.404;2023-07-13T05:22:35;18.80;99.90
18880;DHT22;9572;52.378;13.404;2023-07-13T05:25:03;18.90;99.90
18880;DHT22;9572;52.378;13.404;2023-07-13T11:01:46;26.20;99.90
18880;DHT22;9572;52.378;13.404;2023-07-13T11:04:15;26.70;99.90
18880;DHT22;9572;52.378;13.404;2023-07-13T11:06:43;27.30;99.90
18880;DHT22;9572;52.378;13.404;2023-07-13T11:09:33;27.50;99.90
18880;DHT22;9572;52.378;13.404;2023-07-13T11:12:06;28.10;99.90
18880;DHT22;9572;52.378;13.404;2023-07-13T11:14:35;28.60;99.90
18880;DHT22;9572;52.378;13.404;2023-07-13T11:17:32;29.00;99.90
18880;DHT22;9572;52.378;13.404;2023-07-13T11:20:10;29.30;99.90
18880;DHT22;9572;52.378;13.404;2023-07-13T11:22:47;29.40;99.90
18880;DHT22;9572;52.378;13.404;2023-07-13T11:25:30;29.80;99.90
18880;DHT22;9572;52.378;13.404;2023-07-13T11:28:17;30.10;99.90
18880;DHT22;9572;52.378;13.404;2023-07-13T11:30:47;30.30;99.90
18880;DHT22;9572;52.378;13.404;2023-07-13T11:33:18;29.90;98.90
18880;DHT22;9572;52.378;13.404;2023-07-13T11:35:56;29.60;99.90
18880;DHT22;9572;52.378;13.404;2023-07-13T11:38:30;29.50;99.50
18880;DHT22;9572;52.378;13.404;2023-07-13T11:41:02;29.40;98.40
18880;DHT22;9572;52.378;13.404;2023-07-13T11:43:30;29.50;98.80
18880;DHT22;9572;52.378;13.404;2023-07-13T11:46:11;29.70;97.60
18880;DHT22;9572;52.378;13.404;2023-07-13T11:48:39;29.70;97.60
18880;DHT22;9572;52.378;13.404;2023-07-13T11:51:15;29.80;97.70
18880;DHT22;9572;52.378;13.404;2023-07-13T11:53:46;29.70;97.40
18880;DHT22;9572;52.378;13.404;2023-07-13T11:56:14;29.40;96.10
18880;DHT22;9572;52.378;13.404;2023-07-13T11:58:41;29.00;97.00
18880;DHT22;9572;52.378;13.404;2023-07-13T12:01:17;29.00;96.80
18880;DHT22;9572;52.378;13.404;2023-07-13T12:03:46;29.00;98.10
18880;DHT22;9572;52.378;13.404;2023-07-13T12:06:25;29.10;98.00
18880;DHT22;9572;52.378;13.404;2023-07-13T12:08:56;29.00;97.60
18880;DHT22;9572;52.378;13.404;2023-07-13T12:11:23;29.10;97.50
18880;DHT22;9572;52.378;13.404;2023-07-13T12:13:50;29.20;98.20
18880;DHT22;9572;52.378;13.404;2023-07-13T12:16:26;29.30;96.90
18880;DHT22;9572;52.378;13.404;2023-07-13T12:18:55;29.40;95.50
18880;DHT22;9572;52.378;13.404;2023-07-13T12:21:29;29.50;98.00
18880;DHT22;9572;52.378;13.404;2023-07-13T12:23:57;29.60;95.90
18880;DHT22;9572;52.378;13.404;2023-07-13T12:26:24;29.80;95.60
18880;DHT22;9572;52.378;13.404;2023-07-13T12:28:53;29.90;96.20
18880;DHT22;9572;52.378;13.404;2023-07-13T12:31:40;30.00;93.70
18880;DHT22;9572;52.378;13.404;2023-07-13T12:34:11;29.90;95.70
18880;DHT22;9572;52.378;13.404;2023-07-13T12:36:41;29.70;94.10
18880;DHT22;9572;52.378;13.404;2023-07-13T12:39:15;29.60;94.70
18880;DHT22;9572;52.378;13.404;2023-07-13T12:41:43;29.50;94.00
18880;DHT22;9572;52.378;13.404;2023-07-13T12:44:15;29.30;96.30
18880;DHT22;9572;52.378;13.404;2023-07-13T12:46:53;29.20;96.10
18880;DHT22;9572;52.378;13.404;2023-07-13T12:49:27;29.20;95.20
18880;DHT22;9572;52.378;13.404;2023-07-13T12:51:59;29.30;94.90
18880;DHT22;9572;52.378;13.404;2023-07-13T12:54:27;29.20;94.50
18880;DHT22;9572;52.378;13.404;2023-07-13T12:56:55;28.80;96.40
18880;DHT22;9572;52.378;13.404;2023-07-13T12:59:26;28.40;95.20
18880;DHT22;9572;52.378;13.404;2023-07-13T13:01:55;28.10;95.00
18880;DHT22;9572;52.378;13.404;2023-07-13T13:04:24;27.90;95.20
18880;DHT22;9572;52.378;13.404;2023-07-13T13:07:01;27.90;96.90
18880;DHT22;9572;52.378;13.404;2023-07-13T13:09:29;27.90;97.30
18880;DHT22;9572;52.378;13.404;2023-07-13T13:11:56;28.10;97.70
18880;DHT22;9572;52.378;13.404;2023-07-13T13:14:23;28.50;95.90
18880;DHT22;9572;52.378;13.404;2023-07-13T13:16:51;28.50;94.80
18880;DHT22;9572;52.378;13.404;2023-07-13T13:19:21;28.20;95.70
18880;DHT22;9572;52.378;13.404;2023-07-13T13:21:51;28.00;95.20
18880;DHT22;9572;52.378;13.404;2023-07-13T13:24:20;27.80;95.60
18880;DHT22;9572;52.378;13.404;2023-07-13T13:26:49;27.70;96.30
18880;DHT22;9572;52.378;13.404;2023-07-13T13:29:18;28.00;95.20
18880;DHT22;9572;52.378;13.404;2023-07-13T13:31:46;28.20;95.90
18880;DHT22;9572;52.378;13.404;2023-07-13T13:34:14;28.20;95.40
18880;DHT22;9572;52.378;13.404;2023-07-13T13:36:43;28.30;96.40
18880;DHT22;9572;52.378;13.404;2023-07-13T13:39:20;28.40;95.40
18880;DHT22;9572;52.378;13.404;2023-07-13T13:41:48;28.40;94.90
18880;DHT22;9572;52.378;13.404;2023-07-13T13:44:17;28.40;94.90
18880;DHT22;9572;52.378;13.404;2023-07-13T13:46:46;28.40;94.60
18880;DHT22;9572;52.378;13.404;2023-07-13T13:49:16;28.50;95.20
18880;DHT22;9572;52.378;13.404;2023-07-13T13:51:44;28.60;94.80
18880;DHT22;9572;52.378;13.404;2023-07-13T13:54:13;28.70;94.30
18880;DHT22;9572;52.378;13.404;2023-07-13T13:56:44;29.00;94.00
18880;DHT22;9572;52.378;13.404;2023-07-13T13:59:11;29.00;93.40
18880;DHT22;9572;52.378;13.404;2023-07-13T14:01:39;28.90;92.30
18880;DHT22;9572;52.378;13.404;2023-07-13T14:04:08;28.90;92.30
18880;DHT22;9572;52.378;13.404;2023-07-13T14:06:35;28.70;92.50
18880;DHT22;9572;52.378;13.404;2023-07-13T14:09:04;28.40;93.20
18880;DHT22;9572;52.378;13.404;2023-07-13T14:11:35;28.20;94.60
18880;DHT22;9572;52.378;13.404;2023-07-13T14:14:04;28.00;94.30
18880;DHT22;9572;52.378;13.404;2023-07-13T14:16:32;28.00;96.00
18880;DHT22;9572;52.378;13.404;2023-07-13T14:19:00;28.10;95.10
18880;DHT22;9572;52.378;13.404;2023-07-13T14:21:29;28.20;94.40
18880;DHT22;9572;52.378;13.404;2023-07-13T14:23:56;28.30;94.40
18880;DHT22;9572;52.378;13.404;2023-07-13T14:26:25;28.40;93.80
18880;DHT22;9572;52.378;13.404;2023-07-13T14:28:54;28.30;94.50
18880;DHT22;9572;52.378;13.404;2023-07-13T14:31:25;28.20;95.70
18880;DHT22;9572;52.378;13.404;2023-07-13T14:33:54;28.40;97.60
18880;DHT22;9572;52.378;13.404;2023-07-13T14:36:27;28.40;94.60
18880;DHT22;9572;52.378;13.404;2023-07-13T14:38:55;28.20;94.60
18880;DHT22;9572;52.378;13.404;2023-07-13T14:41:22;27.90;94.50
18880;DHT22;9572;52.378;13.404;2023-07-13T14:43:49;27.50;96.70
18880;DHT22;9572;52.378;13.404;2023-07-13T14:46:26;27.50;95.00
18880;DHT22;9572;52.378;13.404;2023-07-13T14:49:01;27.60;95.50
18880;DHT22;9572;52.378;13.404;2023-07-13T14:51:29;27.50;95.40
18880;DHT22;9572;52.378;13.404;2023-07-13T14:53:56;27.70;95.40
18880;DHT22;9572;52.378;13.404;2023-07-13T14:56:24;27.80;95.50
18880;DHT22;9572;52.378;13.404;2023-07-13T14:58:51;27.90;95.20
18880;DHT22;9572;52.378;13.404;2023-07-13T15:01:20;28.10;94.80
18880;DHT22;9572;52.378;13.404;2023-07-13T15:03:51;28.00;94.40
18880;DHT22;9572;52.378;13.404;2023-07-13T15:06:18;27.90;93.50
18880;DHT22;9572;52.378;13.404;2023-07-13T15:08:46;27.80;93.40
18880;DHT22;9572;52.378;13.404;2023-07-13T15:11:14;27.80;94.20
18880;DHT22;9572;52.378;13.404;2023-07-13T15:13:41;27.80;93.30
18880;DHT22;9572;52.378;13.404;2023-07-13T15:16:15;27.90;93.80
18880;DHT22;9572;52.378;13.404;2023-07-13T15:18:43;28.10;93.10
18880;DHT22;9572;52.378;13.404;2023-07-13T15:21:20;28.10;93.80
18880;DHT22;9572;52.378;13.404;2023-07-13T15:23:48;28.10;94.00
18880;DHT22;9572;52.378;13.404;2023-07-13T15:26:16;28.10;93.30
18880;DHT22;9572;52.378;13.404;2023-07-13T15:28:44;28.10;93.60
18880;DHT22;9572;52.378;13.404;2023-07-13T15:31:19;28.10;93.00
18880;DHT22;9572;52.378;13.404;2023-07-13T15:33:48;28.00;93.20
18880;DHT22;9572;52.378;13.404;2023-07-13T15:36:17;27.90;93.90
18880;DHT22;9572;52.378;13.404;2023-07-13T15:38:46;27.90;94.00
18880;DHT22;9572;52.378;13.404;2023-07-13T15:41:17;27.90;93.00
18880;DHT22;9572;52.378;13.404;2023-07-13T15:43:46;27.80;93.10
18880;DHT22;9572;52.378;13.404;2023-07-13T15:46:14;27.70;94.80
18880;DHT22;9572;52.378;13.404;2023-07-13T15:48:41;27.60;93.30
18880;DHT22;9572;52.378;13.404;2023-07-13T15:51:15;27.50;92.70
18880;DHT22;9572;52.378;13.404;2023-07-13T15:53:46;27.30;94.00
18880;DHT22;9572;52.378;13.404;2023-07-13T15:56:21;27.30;93.80
18880;DHT22;9572;52.378;13.404;2023-07-13T15:58:49;27.40;93.00
18880;DHT22;9572;52.378;13.404;2023-07-13T16:01:16;27.50;92.90
18880;DHT22;9572;52.378;13.404;2023-07-13T16:03:44;27.60;93.90
18880;DHT22;9572;52.378;13.404;2023-07-13T16:06:15;27.60;93.30
18880;DHT22;9572;52.378;13.404;2023-07-13T16:08:44;27.60;92.90
18880;DHT22;9572;52.378;13.404;2023-07-13T16:11:16;27.40;92.10
18880;DHT22;9572;52.378;13.404;2023-07-13T16:13:44;27.20;92.60
18880;DHT22;9572;52.378;13.404;2023-07-13T16:16:13;27.10;92.60
18880;DHT22;9572;52.378;13.404;2023-07-13T16:18:42;27.00;92.90
18880;DHT22;9572;52.378;13.404;2023-07-13T16:21:12;26.80;92.40
18880;DHT22;9572;52.378;13.404;2023-07-13T16:23:41;26.70;92.80
18880;DHT22;9572;52.378;13.404;2023-07-13T16:26:28;26.60;94.40
18880;DHT22;9572;52.378;13.404;2023-07-13T16:28:58;26.70;93.80
18880;DHT22;9572;52.378;13.404;2023-07-13T16:31:30;26.60;94.20
18880;DHT22;9572;52.378;13.404;2023-07-13T16:34:00;26.70;94.90
18880;DHT22;9572;52.378;13.404;2023-07-13T16:36:28;26.70;94.10
18880;DHT22;9572;52.378;13.404;2023-07-13T16:38:56;26.60;93.40
18880;DHT22;9572;52.378;13.404;2023-07-13T16:41:24;26.60;93.00
18880;DHT22;9572;52.378;13.404;2023-07-13T16:43:51;26.50;93.50
18880;DHT22;9572;52.378;13.404;2023-07-13T16:46:22;26.30;93.70
18880;DHT22;9572;52.378;13.404;2023-07-13T16:48:49;26.30;93.50
18880;DHT22;9572;52.378;13.404;2023-07-13T16:51:17;26.20;93.50
18880;DHT22;9572;52.378;13.404;2023-07-13T16:53:43;26.20;93.60
18880;DHT22;9572;52.378;13.404;2023-07-13T16:56:15;26.10;93.50
18880;DHT22;9572;52.378;13.404;2023-07-13T16:58:44;26.00;93.80
18880;DHT22;9572;52.378;13.404;2023-07-13T17:01:12;26.00;93.90
18880;DHT22;9572;52.378;13.404;2023-07-13T17:03:39;26.00;93.90
18880;DHT22;9572;52.378;13.404;2023-07-13T17:06:24;25.90;94.70
18880;DHT22;9572;52.378;13.404;2023-07-13T17:08:53;25.80;94.50
18880;DHT22;9572;52.378;13.404;2023-07-13T17:11:21;25.80;93.30
18880;DHT22;9572;52.378;13.404;2023-07-13T17:13:50;25.50;93.50
18880;DHT22;9572;52.378;13.404;2023-07-13T17:16:16;25.30;94.50
18880;DHT22;9572;52.378;13.404;2023-07-13T17:18:43;25.20;94.10
18880;DHT22;9572;52.378;13.404;2023-07-13T17:21:14;25.10;95.50
18880;DHT22;9572;52.378;13.404;2023-07-13T17:23:42;25.00;95.10
18880;DHT22;9572;52.378;13.404;2023-07-13T17:26:09;24.90;95.20
18880;DHT22;9572;52.378;13.404;2023-07-13T17:28:37;24.80;97.90
18880;DHT22;9572;52.378;13.404;2023-07-13T17:31:06;24.40;99.20
18880;DHT22;9572;52.378;13.404;2023-07-13T17:33:34;23.90;99.90
18880;DHT22;9572;52.378;13.404;2023-07-13T17:36:08;23.30;99.90
18880;DHT22;9572;52.378;13.404;2023-07-13T17:41:13;22.60;99.90
18880;DHT22;9572;52.378;13.404;2023-07-13T17:43:41;22.40;99.90
18880;DHT22;9572;52.378;13.404;2023-07-13T17:46:14;22.20;99.90
18880;DHT22;9572;52.378;13.404;2023-07-13T17:48:43;22.00;99.90
18880;DHT22;9572;52.378;13.404;2023-07-13T17:51:12;21.90;99.90
18880;DHT22;9572;52.378;13.404;2023-07-13T17:53:39;21.60;99.90
18880;DHT22;9572;52.378;13.404;2023-07-13T17:56:08;21.40;99.90
18880;DHT22;9572;52.378;13.404;2023-07-13T17:58:35;21.20;99.90
18880;DHT22;9572;52.378;13.404;2023-07-13T18:01:02;21.00;99.90
18880;DHT22;9572;52.378;13.404;2023-07-13T18:03:35;21.00;99.90
18880;DHT22;9572;52.378;13.404;2023-07-13T18:06:12;21.00;99.90
18880;DHT22;9572;52.378;13.404;2023-07-13T18:08:45;20.90;99.90
18880;DHT22;9572;52.378;13.404;2023-07-13T18:11:13;20.90;99.90
18880;DHT22;9572;52.378;13.404;2023-07-13T18:13:40;20.90;99.90
18880;DHT22;9572;52.378;13.404;2023-07-13T18:16:14;20.90;99.90
18880;DHT22;9572;52.378;13.404;2023-07-13T18:18:43;20.80;99.90
18880;DHT22;9572;52.378;13.404;2023-07-13T18:21:12;20.90;99.90
18880;DHT22;9572;52.378;13.404;2023-07-13T18:23:42;21.00;99.90
18880;DHT22;9572;52.378;13.404;2023-07-13T18:26:10;20.90;99.90
18880;DHT22;9572;52.378;13.404;2023-07-13T18:28:38;20.80;99.90
18880;DHT22;9572;52.378;13.404;2023-07-13T18:31:11;20.80;99.90
18880;DHT22;9572;52.378;13.404;2023-07-13T18:33:39;20.90;99.90
18880;DHT22;9572;52.378;13.404;2023-07-13T18:36:12;20.90;99.90
18880;DHT22;9572;52.378;13.404;2023-07-13T18:38:41;21.00;99.90
18880;DHT22;9572;52.378;13.404;2023-07-13T18:41:10;21.00;99.90
18880;DHT22;9572;52.378;13.404;2023-07-13T18:43:37;21.00;99.90
18880;DHT22;9572;52.378;13.404;2023-07-13T18:46:13;21.00;99.90
18880;DHT22;9572;52.378;13.404;2023-07-13T18:48:43;21.10;99.90
18880;DHT22;9572;52.378;13.404;2023-07-13T18:51:12;21.10;99.90
18880;DHT22;9572;52.378;13.404;2023-07-13T18:53:39;21.00;99.90
18880;DHT22;9572;52.378;13.404;2023-07-13T18:56:06;21.00;99.90
18880;DHT22;9572;52.378;13.404;2023-07-13T18:58:33;20.90;99.90
18880;DHT22;9572;52.378;13.404;2023-07-13T19:01:01;20.80;99.90
18880;DHT22;9572;52.378;13.404;2023-07-13T19:03:32;20.80;99.90
18880;DHT22;9572;52.378;13.404;2023-07-13T19:06:01;20.80;99.90
18880;DHT22;9572;52.378;13.404;2023-07-13T19:08:30;20.80;99.90
18880;DHT22;9572;52.378;13.404;2023-07-13T19:10:57;20.70;99.90
18880;DHT22;9572;52.378;13.404;2023-07-13T19:13:26;20.80;99.90
18880;DHT22;9572;52.378;13.404;2023-07-13T19:15:54;20.70;99.90
18880;DHT22;9572;52.378;13.404;2023-07-13T19:18:22;20.60;99.90
18880;DHT22;9572;52.378;13.404;2023-07-13T19:20:51;20.60;99.90
18880;DHT22;9572;52.378;13.404;2023-07-13T19:23:26;20.50;99.90
18880;DHT22;9572;52.378;13.404;2023-07-13T19:25:59;20.50;99.90
18880;DHT22;9572;52.378;13.404;2023-07-13T19:28:32;20.40;99.90
18880;DHT22;9572;52.378;13.404;2023-07-13T19:31:02;20.40;99.90
18880;DHT22;9572;52.378;13.404;2023-07-13T19:33:29;20.30;99.90
18880;DHT22;9572;52.378;13.404;2023-07-13T19:35:56;20.20;99.90
18880;DHT22;9572;52.378;13.404;2023-07-13T19:38:25;20.20;99.90
18880;DHT22;9572;52.378;13.404;2023-07-13T19:40:53;20.10;99.90
18880;DHT22;9572;52.378;13.404;2023-07-13T19:43:22;20.10;99.90
18880;DHT22;9572;52.378;13.404;2023-07-13T19:45:49;20.00;99.90
18880;DHT22;9572;52.378;13.404;2023-07-13T19:48:19;19.80;99.90
18880;DHT22;9572;52.378;13.404;2023-07-13T19:50:47;19.80;99.90
18880;DHT22;9572;52.378;13.404;2023-07-13T19:53:17;19.70;99.90
18880;DHT22;9572;52.378;13.404;2023-07-13T19:55:45;19.60;99.90
18880;DHT22;9572;52.378;13.404;2023-07-13T19:58:13;19.50;99.90
18880;DHT22;9572;52.378;13.404;2023-07-13T20:00:41;19.40;99.90
18880;DHT22;9572;52.378;13.404;2023-07-13T20:03:08;19.40;99.90
18880;DHT22;9572;52.378;13.404;2023-07-13T20:05:35;19.40;99.90
18880;DHT22;9572;52.378;13.404;2023-07-13T20:08:10;19.40;99.90
18880;DHT22;9572;52.378;13.404;2023-07-13T20:10:38;19.30;99.90
18880;DHT22;9572;52.378;13.404;2023-07-13T20:13:12;19.30;99.90
18880;DHT22;9572;52.378;13.404;2023-07-13T20:15:42;19.20;99.90
18880;DHT22;9572;52.378;13.404;2023-07-13T20:18:13;19.20;99.90
18880;DHT22;9572;52.378;13.404;2023-07-13T20:20:42;19.20;99.90
18880;DHT22;9572;52.378;13.404;2023-07-13T20:23:13;19.20;99.90
18880;DHT22;9572;52.378;13.404;2023-07-13T20:25:41;19.20;99.90
18880;DHT22;9572;52.378;13.404;2023-07-13T20:28:09;19.30;99.90
18880;DHT22;9572;52.378;13.404;2023-07-13T20:30:39;19.20;99.90
18880;DHT22;9572;52.378;13.404;2023-07-13T20:33:13;19.30;99.90
18880;DHT22;9572;52.378;13.404;2023-07-13T20:35:40;19.20;99.90
18880;DHT22;9572;52.378;13.404;2023-07-13T20:38:12;19.20;99.90
18880;DHT22;9572;52.378;13.404;2023-07-13T20:40:39;19.20;99.90
18880;DHT22;9572;52.378;13.404;2023-07-13T20:43:06;19.20;99.90
18880;DHT22;9572;52.378;13.404;2023-07-13T20:45:34;19.20;99.90
18880;DHT22;9572;52.378;13.404;2023-07-13T20:48:20;19.20;99.90
18880;DHT22;9572;52.378;13.404;2023-07-13T20:50:50;19.10;99.90
18880;DHT22;9572;52.378;13.404;2023-07-13T20:53:17;19.10;99.90
18880;DHT22;9572;52.378;13.404;2023-07-13T20:55:44;19.10;99.90
18880;DHT22;9572;52.378;13.404;2023-07-13T20:58:11;19.00;99.90
18880;DHT22;9572;52.378;13.404;2023-07-13T21:00:40;19.00;99.90
18880;DHT22;9572;52.378;13.404;2023-07-13T21:03:16;19.00;99.90
18880;DHT22;9572;52.378;13.404;2023-07-13T21:05:44;19.00;99.90
18880;DHT22;9572;52.378;13.404;2023-07-13T21:08:12;18.90;99.90
18880;DHT22;9572;52.378;13.404;2023-07-13T21:10:39;18.90;99.90
18880;DHT22;9572;52.378;13.404;2023-07-13T21:13:06;18.90;99.90
18880;DHT22;9572;52.378;13.404;2023-07-13T21:15:35;18.80;99.90
18880;DHT22;9572;52.378;13.404;2023-07-13T21:18:03;18.80;99.90
18880;DHT22;9572;52.378;13.404;2023-07-13T21:20:35;18.70;99.90